Time;durP1;ratioP1;P1;durP2;ratioP2;P2;SDS_P1;SDS_P2;PMS_P1;PMS_P2;Temp;Humidity;BMP_temperature;BMP_pressure;BME280_temperature;BME280_humidity;BME280_pressure;Samples;Min_cycle;Max_cycle;Signal;HPM_P1;HPM_P2
2021/06/16 00:02:24;;;;;;;6.40;2.92;;;;;;;17.64;75.45;100908.81;5030332;28;20044;-71
2021/06/16 00:04:51;;;;;;;8.35;2.83;;;;;;;17.66;75.38;100897.19;5029574;28;20041;-71
2021/06/16 00:07:19;;;;;;;4.25;2.47;;;;;;;17.68;75.39;100894.50;5029460;28;20196;-72
2021/06/16 00:09:47;;;;;;;7.03;2.60;;;;;;;17.68;75.44;100891.84;5036591;28;20046;-71
2021/06/16 00:12:14;;;;;;;6.70;2.60;;;;;;;17.67;75.59;100908.75;5028001;28;20136;-71
2021/06/16 00:14:42;;;;;;;4.15;2.50;;;;;;;17.66;75.86;100913.19;5029760;28;20042;-71
2021/06/16 00:17:12;;;;;;;3.55;2.20;;;;;;;17.64;76.05;100914.13;5029292;28;20460;-71
2021/06/16 00:19:39;;;;;;;9.30;3.13;;;;;;;17.74;76.33;100906.00;5028376;28;20045;-72
2021/06/16 00:22:07;;;;;;;5.65;2.20;;;;;;;17.82;76.31;100920.16;5029768;28;20034;-72
2021/06/16 00:24:35;;;;;;;4.70;2.60;;;;;;;17.81;76.21;100905.03;5027667;28;20057;-72
2021/06/16 00:27:02;;;;;;;6.15;3.20;;;;;;;17.78;75.40;100898.84;5028486;28;20038;-73
2021/06/16 00:29:30;;;;;;;4.20;2.90;;;;;;;17.59;75.68;100899.94;5028133;28;20064;-72
2021/06/16 00:31:57;;;;;;;8.02;2.67;;;;;;;17.53;76.24;100904.41;5028916;28;20047;-72
2021/06/16 00:34:27;;;;;;;8.60;2.80;;;;;;;17.35;77.50;100901.03;5030069;28;20076;-72
2021/06/16 00:36:55;;;;;;;4.53;2.80;;;;;;;17.38;77.71;100907.25;5029252;28;20041;-72
2021/06/16 00:39:22;;;;;;;5.03;2.92;;;;;;;17.45;77.81;100898.28;5028971;28;20037;-72
2021/06/16 00:41:50;;;;;;;4.15;2.05;;;;;;;17.46;77.85;100907.16;5029260;28;20041;-72
2021/06/16 00:44:18;;;;;;;7.88;3.30;;;;;;;17.63;77.55;100899.91;5029000;28;20102;-72
2021/06/16 00:46:45;;;;;;;6.75;2.90;;;;;;;17.66;77.53;100891.84;5028965;28;20100;-71
2021/06/16 00:49:13;;;;;;;3.95;2.53;;;;;;;17.68;77.44;100897.16;5034936;28;20388;-72
2021/06/16 00:51:42;;;;;;;5.82;2.85;;;;;;;17.59;78.40;100902.59;5049331;28;20041;-73
2021/06/16 00:54:11;;;;;;;8.13;3.55;;;;;;;17.61;77.77;100890.13;5029077;28;20406;-74
2021/06/16 00:56:40;;;;;;;10.05;3.83;;;;;;;17.58;77.86;100872.34;5029209;28;20041;-75
2021/06/16 00:59:08;;;;;;;6.70;3.40;;;;;;;17.56;77.42;100867.91;5028895;28;20164;-74
2021/06/16 01:01:42;;;;;;;6.72;3.40;;;;;;;17.57;78.03;100875.03;5027685;28;20034;-76
2021/06/16 01:04:14;;;;;;;8.93;3.13;;;;;;;17.44;78.62;100884.94;5029019;28;20053;-74
2021/06/16 01:06:49;;;;;;;7.35;3.00;;;;;;;17.40;79.27;100886.75;5034494;28;20490;-74
2021/06/16 01:09:19;;;;;;;8.27;3.17;;;;;;;17.42;79.61;100879.63;5035255;28;20061;-74
2021/06/16 01:11:59;;;;;;;7.30;2.95;;;;;;;17.55;79.09;100875.03;5034418;28;20124;-74
2021/06/16 01:14:35;;;;;;;8.52;3.58;;;;;;;17.58;78.74;100892.81;5054770;28;20032;-72
2021/06/16 01:17:06;;;;;;;7.07;3.20;;;;;;;17.65;78.51;100886.53;5055171;28;20120;-73
2021/06/16 01:19:49;;;;;;;6.57;2.88;;;;;;;17.61;78.27;100875.00;5054815;28;20038;-73
2021/06/16 01:22:30;;;;;;;5.57;2.92;;;;;;;17.69;78.73;100878.47;5038176;28;20135;-73
2021/06/16 01:25:02;;;;;;;9.02;3.10;;;;;;;17.64;78.49;100876.75;5055208;28;20033;-72
2021/06/16 01:27:32;;;;;;;6.25;3.67;;;;;;;17.60;78.66;100873.19;5055638;28;20029;-73
2021/06/16 01:30:00;;;;;;;5.65;2.92;;;;;;;17.50;78.82;100883.09;5040029;28;20038;-72
2021/06/16 01:32:27;;;;;;;6.63;3.17;;;;;;;17.41;79.68;100885.84;5035887;28;20029;-71
2021/06/16 01:34:55;;;;;;;6.18;2.83;;;;;;;17.36;80.03;100886.81;5033829;28;20137;-72
2021/06/16 01:37:23;;;;;;;5.13;3.00;;;;;;;17.32;80.12;100879.75;5035069;28;20515;-73
2021/06/16 01:39:52;;;;;;;5.57;2.97;;;;;;;17.33;80.58;100884.16;5035124;28;20125;-72
2021/06/16 01:42:22;;;;;;;5.13;3.40;;;;;;;17.36;80.02;100879.69;5034890;28;20491;-72
2021/06/16 01:44:52;;;;;;;8.13;3.85;;;;;;;17.41;79.99;100887.63;5035472;28;20116;-72
2021/06/16 01:47:21;;;;;;;8.15;3.00;;;;;;;17.34;80.09;100880.59;5035781;28;20052;-72
2021/06/16 01:49:53;;;;;;;7.13;3.15;;;;;;;17.35;80.24;100888.59;5034049;28;20078;-72
2021/06/16 01:52:22;;;;;;;7.10;3.13;;;;;;;17.43;79.96;100889.41;5035459;28;20065;-72
2021/06/16 01:54:51;;;;;;;4.65;2.55;;;;;;;17.40;80.35;100878.75;5034927;28;20060;-71
2021/06/16 01:57:19;;;;;;;9.73;3.50;;;;;;;17.42;80.06;100876.06;5034571;28;20061;-72
2021/06/16 01:59:49;;;;;;;7.30;3.63;;;;;;;17.45;79.64;100878.72;5035336;28;20124;-72
2021/06/16 02:02:18;;;;;;;6.97;3.17;;;;;;;17.41;80.24;100880.53;5035050;28;20124;-72
2021/06/16 02:04:45;;;;;;;4.82;3.05;;;;;;;17.40;79.70;100875.19;5034990;28;20049;-72
2021/06/16 02:07:16;;;;;;;5.97;3.15;;;;;;;17.39;80.11;100886.78;5035131;28;20046;-73
2021/06/16 02:09:46;;;;;;;8.32;3.05;;;;;;;17.36;79.82;100884.13;5034707;28;20052;-72
2021/06/16 02:12:17;;;;;;;5.05;2.75;;;;;;;17.29;80.18;100887.78;5034872;28;20160;-72
2021/06/16 02:14:53;;;;;;;6.53;3.33;;;;;;;17.26;79.90;100896.72;5035072;28;20040;-72
2021/06/16 02:17:24;;;;;;;6.88;2.80;;;;;;;17.21;79.93;100895.84;5032304;28;20556;-72
2021/06/16 02:19:55;;;;;;;7.90;3.08;;;;;;;17.19;80.54;100891.44;5051422;28;20056;-72
2021/06/16 02:22:26;;;;;;;9.25;3.40;;;;;;;17.17;80.60;100899.44;5051898;28;20502;-71
2021/06/16 02:24:53;;;;;;;6.03;3.33;;;;;;;17.14;80.70;100896.78;5050126;28;20064;-71
2021/06/16 02:27:21;;;;;;;5.45;3.13;;;;;;;17.04;80.43;100892.44;5043089;28;20067;-71
2021/06/16 02:29:49;;;;;;;6.47;3.28;;;;;;;17.11;80.53;100891.50;5031824;28;20117;-72
2021/06/16 02:32:17;;;;;;;5.18;3.33;;;;;;;17.09;80.54;100899.50;5031141;28;20053;-72
2021/06/16 02:34:46;;;;;;;5.78;3.00;;;;;;;17.12;80.84;100890.59;5031501;28;20037;-72
2021/06/16 02:37:19;;;;;;;4.63;2.83;;;;;;;17.13;80.84;100892.38;5031542;28;20400;-71
2021/06/16 02:39:53;;;;;;;5.90;3.17;;;;;;;17.10;80.52;100895.06;5031529;28;20045;-72
2021/06/16 02:42:22;;;;;;;4.55;2.67;;;;;;;17.02;80.74;100899.56;5031080;28;20037;-71
2021/06/16 02:44:51;;;;;;;7.22;3.17;;;;;;;17.10;81.10;100905.72;5031414;28;20116;-71
2021/06/16 02:47:19;;;;;;;8.50;3.90;;;;;;;17.12;80.48;100906.63;5031537;28;20115;-71
2021/06/16 02:49:51;;;;;;;8.57;3.40;;;;;;;17.13;80.83;100906.56;5030486;28;20134;-71
2021/06/16 02:52:20;;;;;;;7.18;3.50;;;;;;;17.15;80.29;100909.25;5031261;28;20504;-71
2021/06/16 02:54:53;;;;;;;6.40;3.83;;;;;;;17.16;80.39;100904.78;5030810;28;20116;-71
2021/06/16 02:57:22;;;;;;;6.03;3.40;;;;;;;17.13;79.95;100908.41;5031699;28;20501;-71
2021/06/16 02:59:52;;;;;;;7.97;3.08;;;;;;;17.11;79.93;100905.72;5031125;28;20041;-71
2021/06/16 03:02:24;;;;;;;7.53;3.00;;;;;;;17.09;80.14;100917.28;5030517;28;20041;-71
2021/06/16 03:04:54;;;;;;;6.22;3.92;;;;;;;17.01;80.58;100925.34;5031236;28;20490;-72
2021/06/16 03:07:23;;;;;;;6.45;3.42;;;;;;;17.00;80.42;100923.59;5031206;28;20034;-71
2021/06/16 03:09:51;;;;;;;7.40;4.22;;;;;;;17.06;80.45;100922.69;5033736;28;20426;-71
2021/06/16 03:12:21;;;;;;;6.00;3.22;;;;;;;17.05;80.42;100921.78;5030892;28;20407;-72
2021/06/16 03:14:49;;;;;;;5.80;3.55;;;;;;;17.03;80.44;100925.34;5030788;28;20120;-72
2021/06/16 03:17:18;;;;;;;13.07;4.30;;;;;;;17.00;80.32;100925.41;5031316;28;20570;-72
2021/06/16 03:19:47;;;;;;;6.88;3.03;;;;;;;16.97;80.75;100926.28;5030687;28;20454;-71
2021/06/16 03:22:17;;;;;;;6.68;2.95;;;;;;;16.94;80.26;100928.09;5030009;28;20405;-72
2021/06/16 03:24:46;;;;;;;6.57;3.40;;;;;;;16.89;81.19;100930.78;5030593;28;20524;-71
2021/06/16 03:27:14;;;;;;;5.68;3.42;;;;;;;16.89;80.75;100930.78;5030336;28;20437;-71
2021/06/16 03:29:42;;;;;;;6.75;3.40;;;;;;;16.92;81.11;100933.44;5030992;28;20048;-71
2021/06/16 03:32:12;;;;;;;5.88;3.33;;;;;;;16.92;81.13;100932.56;5029485;28;20617;-71
2021/06/16 03:34:40;;;;;;;5.93;3.35;;;;;;;17.00;81.01;100936.91;5030405;28;20120;-71
2021/06/16 03:37:10;;;;;;;4.60;3.05;;;;;;;17.07;81.28;100943.97;5028958;28;20041;-71
2021/06/16 03:39:40;;;;;;;5.18;2.75;;;;;;;17.10;81.70;100943.09;5029852;28;20037;-71
2021/06/16 03:42:09;;;;;;;7.07;3.50;;;;;;;17.12;81.53;100936.84;5029734;28;20033;-71
2021/06/16 03:44:38;;;;;;;7.85;3.10;;;;;;;17.17;81.11;100939.47;5029305;28;20071;-72
2021/06/16 03:47:07;;;;;;;5.45;3.58;;;;;;;17.22;81.24;100939.41;5030687;28;20652;-71
2021/06/16 03:49:36;;;;;;;5.80;3.15;;;;;;;17.32;81.30;100950.00;5029266;28;20113;-71
2021/06/16 03:52:05;;;;;;;8.82;3.47;;;;;;;17.31;81.06;100955.34;5030251;28;20045;-72
2021/06/16 03:54:34;;;;;;;9.75;3.33;;;;;;;17.30;81.48;100959.81;5029912;28;20037;-71
2021/06/16 03:57:04;;;;;;;7.65;3.45;;;;;;;17.35;81.42;100970.44;5029734;28;20038;-71
2021/06/16 03:59:32;;;;;;;6.57;3.83;;;;;;;17.48;82.00;100964.09;5029727;28;20076;-71
2021/06/16 04:02:00;;;;;;;8.13;3.85;;;;;;;17.60;81.90;100961.28;5029437;28;20544;-71
2021/06/16 04:04:28;;;;;;;5.82;3.92;;;;;;;17.69;81.75;100966.59;5029552;28;20069;-70
2021/06/16 04:06:56;;;;;;;6.53;3.42;;;;;;;17.85;81.76;100962.84;5030609;28;20073;-71
2021/06/16 04:09:24;;;;;;;11.85;3.47;;;;;;;17.90;81.83;100963.69;5030058;28;20057;-71
2021/06/16 04:11:52;;;;;;;9.52;3.80;;;;;;;18.07;81.71;100957.25;5016250;28;20067;-71
2021/06/16 04:14:23;;;;;;;9.50;3.75;;;;;;;18.30;81.42;100963.22;5029410;28;20048;-72
2021/06/16 04:16:54;;;;;;;10.02;4.07;;;;;;;18.49;81.27;100967.41;5029755;28;20045;-71
2021/06/16 04:19:22;;;;;;;6.78;3.20;;;;;;;18.55;81.73;100958.41;5030145;28;20037;-71
2021/06/16 04:21:50;;;;;;;7.22;3.58;;;;;;;18.54;81.91;100957.53;5029897;28;20043;-71
2021/06/16 04:24:17;;;;;;;4.32;3.05;;;;;;;18.48;81.67;100967.44;5029488;28;20044;-71
2021/06/16 04:26:45;;;;;;;4.75;2.70;;;;;;;18.41;81.72;100966.63;5039765;28;20059;-72
2021/06/16 04:29:12;;;;;;;8.75;3.60;;;;;;;18.42;81.62;100971.06;5040437;28;20117;-71
2021/06/16 04:31:41;;;;;;;6.53;3.33;;;;;;;18.53;81.69;100968.25;5029651;28;20471;-72
2021/06/16 04:34:09;;;;;;;8.77;3.90;;;;;;;18.72;81.56;100972.47;5029719;28;20056;-72
2021/06/16 04:36:36;;;;;;;5.53;2.88;;;;;;;19.10;81.61;100978.09;5029155;28;20087;-72
2021/06/16 04:39:04;;;;;;;6.15;3.22;;;;;;;19.24;81.51;100971.66;5029317;28;20064;-72
2021/06/16 04:41:32;;;;;;;6.35;3.03;;;;;;;19.83;81.64;100973.28;5028334;28;20121;-71
2021/06/16 04:43:59;;;;;;;4.95;2.13;;;;;;;20.12;81.02;100973.63;5028960;28;20053;-71
2021/06/16 04:46:27;;;;;;;5.68;2.08;;;;;;;20.57;80.67;100966.44;5028277;28;20029;-71
2021/06/16 04:48:56;;;;;;;5.43;2.20;;;;;;;21.26;79.37;100973.78;5029399;28;20061;-72
2021/06/16 04:51:24;;;;;;;5.38;2.00;;;;;;;21.41;78.93;100962.66;5029225;28;20040;-72
2021/06/16 04:53:51;;;;;;;5.55;2.22;;;;;;;21.11;78.82;100957.13;5028547;28;20057;-72
2021/06/16 04:56:20;;;;;;;3.45;2.08;;;;;;;20.87;78.81;100959.47;5039950;28;20136;-71
2021/06/16 04:58:50;;;;;;;4.97;1.85;;;;;;;20.66;78.50;100960.00;5033954;28;20449;-72
2021/06/16 05:01:17;;;;;;;4.22;2.25;;;;;;;21.00;77.55;100957.41;5028508;28;20037;-72
2021/06/16 05:03:45;;;;;;;5.32;2.00;;;;;;;20.87;76.95;100958.63;5029076;28;20084;-71
2021/06/16 05:06:14;;;;;;;5.60;1.63;;;;;;;21.38;75.75;100967.22;5026601;28;20125;-71
2021/06/16 05:08:43;;;;;;;2.83;1.42;;;;;;;22.13;73.77;100966.97;5023946;28;20095;-72
2021/06/16 05:11:10;;;;;;;2.13;1.10;;;;;;;22.86;71.99;100962.09;5029152;28;20042;-71
2021/06/16 05:13:38;;;;;;;4.03;2.22;;;;;;;23.41;70.21;100971.06;5028708;28;20033;-72
2021/06/16 05:16:06;;;;;;;2.88;1.30;;;;;;;24.01;69.21;100961.78;5026660;28;20569;-72
2021/06/16 05:18:34;;;;;;;3.85;1.50;;;;;;;24.18;68.61;100970.13;5036201;28;20037;-72
2021/06/16 05:21:01;;;;;;;6.18;1.38;;;;;;;24.61;67.27;100969.44;5044365;28;20064;-72
2021/06/16 05:23:32;;;;;;;2.95;1.25;;;;;;;25.10;65.96;100964.78;5049012;28;20033;-71
2021/06/16 05:26:00;;;;;;;5.28;1.30;;;;;;;25.46;64.28;100965.06;5048973;28;20036;-72
2021/06/16 05:28:28;;;;;;;3.95;1.63;;;;;;;25.68;63.78;100971.34;5029182;28;20128;-71
2021/06/16 05:30:57;;;;;;;5.30;1.27;;;;;;;26.06;62.54;100967.81;5028641;28;20033;-72
2021/06/16 05:33:25;;;;;;;9.65;3.10;;;;;;;26.46;60.39;100976.84;5035936;28;20119;-72
2021/06/16 05:35:52;;;;;;;4.10;1.40;;;;;;;25.64;61.71;100981.41;5027576;28;20049;-72
2021/06/16 05:38:21;;;;;;;2.83;1.20;;;;;;;25.01;63.45;100976.84;5028395;28;20308;-72
2021/06/16 05:40:50;;;;;;;2.38;1.27;;;;;;;25.24;62.59;100976.78;5029425;28;20048;-71
2021/06/16 05:43:18;;;;;;;2.38;1.20;;;;;;;26.26;59.35;100982.28;5010553;28;20088;-71
2021/06/16 05:45:45;;;;;;;3.42;1.23;;;;;;;26.26;58.95;100988.59;5028928;28;20034;-71
2021/06/16 05:48:13;;;;;;;2.78;1.23;;;;;;;26.28;58.86;100973.16;5027913;28;20116;-71
2021/06/16 05:50:41;;;;;;;2.00;0.95;;;;;;;26.87;56.17;100983.00;5028216;28;20490;-71
2021/06/16 05:53:10;;;;;;;3.85;0.93;;;;;;;27.21;53.64;100979.56;5029652;28;20029;-71
2021/06/16 05:55:39;;;;;;;2.10;0.98;;;;;;;27.20;52.79;100977.78;5031443;28;20444;-71
2021/06/16 05:58:08;;;;;;;1.30;0.80;;;;;;;26.06;53.52;100984.03;5032361;28;20057;-71
2021/06/16 06:00:36;;;;;;;3.15;1.20;;;;;;;25.16;55.96;100970.81;5043624;28;20087;-70
2021/06/16 06:03:04;;;;;;;3.13;0.88;;;;;;;25.93;53.31;100971.16;5048672;28;20104;-71
2021/06/16 06:05:32;;;;;;;2.15;1.02;;;;;;;26.55;52.65;100968.28;5031148;28;20093;-70
2021/06/16 06:08:39;;;;;;;1.83;1.00;;;;;;;26.93;52.09;100975.50;5050451;28;20433;-71
2021/06/16 06:11:07;;;;;;;3.15;0.80;;;;;;;27.36;51.24;100960.69;5051981;28;20041;-71
2021/06/16 06:13:36;;;;;;;4.15;1.10;;;;;;;27.73;50.10;100967.84;5052112;28;20045;-71
2021/06/16 06:16:04;;;;;;;2.15;0.80;;;;;;;27.77;49.87;100965.81;5051352;28;20095;-71
2021/06/16 06:18:32;;;;;;;1.77;0.65;;;;;;;27.94;49.34;100970.38;5052108;28;20720;-70
2021/06/16 06:20:59;;;;;;;0.73;0.70;;;;;;;28.26;48.15;100957.81;5050242;28;20072;-71
2021/06/16 06:23:28;;;;;;;1.60;0.90;;;;;;;28.11;48.26;100962.19;5047354;28;20124;-70
2021/06/16 06:25:56;;;;;;;5.57;0.90;;;;;;;27.97;47.44;100968.38;5050503;28;20102;-71
2021/06/16 06:28:24;;;;;;;1.20;0.70;;;;;;;27.90;47.77;100969.66;5030637;28;20087;-70
2021/06/16 06:30:53;;;;;;;2.20;1.15;;;;;;;28.00;46.99;100972.78;5031225;28;20204;-70
2021/06/16 06:33:20;;;;;;;2.45;0.80;;;;;;;28.00;47.33;100967.34;5030136;28;20088;-69
2021/06/16 06:35:48;;;;;;;2.00;0.60;;;;;;;28.08;46.80;100975.97;5030858;28;20045;-69
2021/06/16 06:38:16;;;;;;;2.25;0.80;;;;;;;28.26;46.66;100972.28;5041486;28;20133;-69
2021/06/16 06:40:43;;;;;;;2.28;0.70;;;;;;;28.51;46.19;100977.25;5032777;28;20061;-69
2021/06/16 06:43:11;;;;;;;3.08;0.95;;;;;;;28.50;45.88;100975.47;5040841;28;20045;-70
2021/06/16 06:45:39;;;;;;;5.10;1.00;;;;;;;28.55;46.80;100976.13;5036581;28;20115;-70
2021/06/16 06:48:09;;;;;;;2.70;0.85;;;;;;;28.77;46.55;100975.81;5030374;28;20108;-69
2021/06/16 06:50:37;;;;;;;3.08;0.70;;;;;;;28.74;45.64;100970.53;5028957;28;20038;-70
2021/06/16 06:53:05;;;;;;;3.03;0.93;;;;;;;28.64;45.23;100974.72;5031105;28;20539;-69
2021/06/16 06:55:33;;;;;;;3.33;0.80;;;;;;;28.80;45.63;100978.38;5046371;28;20041;-70
2021/06/16 06:58:01;;;;;;;2.95;0.80;;;;;;;28.86;45.07;100983.47;5020371;28;20417;-68
2021/06/16 07:00:29;;;;;;;3.28;0.90;;;;;;;28.61;44.87;100975.78;5029192;28;20124;-68
2021/06/16 07:02:57;;;;;;;2.50;1.10;;;;;;;28.74;44.10;100971.44;5043166;28;20056;-70
2021/06/16 07:05:26;;;;;;;1.30;0.80;;;;;;;28.26;45.46;100980.44;5050981;28;20041;-70
2021/06/16 07:07:55;;;;;;;4.20;1.63;;;;;;;28.39;45.22;100976.09;5035033;28;20042;-70
2021/06/16 07:10:23;;;;;;;3.47;1.02;;;;;;;28.69;45.20;100965.34;5051212;28;20041;-70
2021/06/16 07:12:51;;;;;;;2.13;0.80;;;;;;;28.91;44.73;100974.06;5032561;28;20048;-69
2021/06/16 07:15:19;;;;;;;1.77;1.00;;;;;;;29.02;44.71;100975.28;5030763;28;20092;-69
2021/06/16 07:17:46;;;;;;;7.07;1.00;;;;;;;29.09;44.60;100971.25;5028178;28;20569;-71
2021/06/16 07:20:17;;;;;;;5.82;1.08;;;;;;;29.19;44.23;100983.34;5029193;28;20136;-70
2021/06/16 07:22:49;;;;;;;2.05;1.00;;;;;;;29.34;44.06;100981.63;5025641;28;20393;-71
2021/06/16 07:25:18;;;;;;;1.40;0.63;;;;;;;29.22;43.24;100983.16;5030098;28;20401;-71
2021/06/16 07:27:47;;;;;;;1.42;0.77;;;;;;;29.31;43.60;100980.78;5037361;28;20083;-70
2021/06/16 07:30:16;;;;;;;3.80;1.10;;;;;;;29.38;43.29;100981.34;5030168;28;20037;-71
2021/06/16 07:32:44;;;;;;;3.40;0.80;;;;;;;29.32;43.72;100989.84;5024519;28;20112;-71
2021/06/16 07:35:14;;;;;;;5.18;1.38;;;;;;;29.39;43.79;100985.81;5037945;28;20041;-71
2021/06/16 07:37:42;;;;;;;1.73;0.80;;;;;;;29.26;42.46;100984.75;5037465;28;20459;-71
2021/06/16 07:40:12;;;;;;;2.42;0.77;;;;;;;29.13;42.13;100976.44;5036454;28;20068;-71
2021/06/16 07:42:41;;;;;;;2.85;0.75;;;;;;;29.13;42.07;100984.59;5038167;28;20029;-70
2021/06/16 07:45:12;;;;;;;3.47;1.05;;;;;;;29.35;42.05;101002.41;5031893;28;20492;-69
2021/06/16 07:47:40;;;;;;;2.88;1.02;;;;;;;29.43;41.91;100994.66;5028226;28;20062;-69
2021/06/16 07:50:10;;;;;;;3.50;0.98;;;;;;;29.51;42.09;100997.81;5028700;28;20049;-69
2021/06/16 07:52:37;;;;;;;1.48;0.77;;;;;;;29.49;41.23;100999.75;5028704;28;20045;-69
2021/06/16 07:55:06;;;;;;;4.13;0.95;;;;;;;30.03;40.74;101009.19;5028153;28;20037;-69
2021/06/16 07:57:35;;;;;;;5.38;1.10;;;;;;;30.16;40.79;101012.03;5028813;28;20048;-69
2021/06/16 08:00:04;;;;;;;1.75;0.80;;;;;;;30.19;40.25;101004.56;5028500;28;20578;-69
2021/06/16 08:02:32;;;;;;;1.38;0.80;;;;;;;30.07;39.60;101011.63;5024639;28;20405;-69
2021/06/16 08:05:00;;;;;;;1.88;0.73;;;;;;;30.28;39.29;101008.56;5035743;28;20489;-69
2021/06/16 08:07:28;;;;;;;2.78;1.35;;;;;;;30.05;39.92;101012.72;5031981;28;20050;-69
2021/06/16 08:09:56;;;;;;;0.82;0.63;;;;;;;29.94;39.61;101013.34;5029263;28;20108;-69
2021/06/16 08:12:23;;;;;;;1.80;0.90;;;;;;;29.97;38.98;101005.00;5029470;28;20041;-69
2021/06/16 08:14:54;;;;;;;2.42;0.80;;;;;;;29.79;39.05;101006.09;5032754;28;20090;-69
2021/06/16 08:17:23;;;;;;;1.42;0.63;;;;;;;29.45;38.48;101014.50;5046003;28;20095;-69
2021/06/16 08:19:52;;;;;;;2.80;0.63;;;;;;;29.59;38.74;101022.75;5041654;28;20132;-69
2021/06/16 08:22:20;;;;;;;1.15;0.65;;;;;;;29.73;38.68;101011.91;5030765;28;20037;-69
2021/06/16 08:24:50;;;;;;;0.98;0.68;;;;;;;29.86;38.41;101017.50;5039007;28;20500;-69
2021/06/16 08:27:20;;;;;;;1.20;0.60;;;;;;;29.92;37.96;101023.47;5020427;28;20046;-69
2021/06/16 08:29:51;;;;;;;2.25;0.90;;;;;;;29.95;37.97;101025.13;5025851;28;22493;-69
2021/06/16 08:32:21;;;;;;;3.50;1.20;;;;;;;30.15;37.91;101032.06;5041304;28;20522;-68
2021/06/16 08:34:50;;;;;;;1.05;0.70;;;;;;;30.14;37.29;101027.59;5029173;28;20124;-68
2021/06/16 08:37:23;;;;;;;1.05;0.60;;;;;;;30.17;36.77;101030.16;5028367;28;20497;-68
2021/06/16 08:39:52;;;;;;;1.08;0.57;;;;;;;30.24;36.31;101028.78;5028348;28;20123;-68
2021/06/16 08:42:23;;;;;;;1.75;0.70;;;;;;;30.12;35.34;101033.16;5028413;28;20049;-69
2021/06/16 08:44:55;;;;;;;1.63;1.00;;;;;;;30.20;34.75;101032.66;5028263;28;20041;-68
2021/06/16 08:47:27;;;;;;;2.28;1.40;;;;;;;30.03;35.53;101044.59;5033018;28;20458;-68
2021/06/16 08:49:57;;;;;;;3.42;1.52;;;;;;;30.03;35.82;101034.59;5028874;28;20444;-68
2021/06/16 08:52:26;;;;;;;3.53;0.95;;;;;;;30.07;35.82;101033.41;5028858;28;20053;-69
2021/06/16 08:54:54;;;;;;;3.38;0.80;;;;;;;30.11;35.24;101047.75;5027868;28;20124;-68
2021/06/16 08:57:23;;;;;;;1.30;0.77;;;;;;;30.26;35.28;101043.22;5027650;28;20046;-68
2021/06/16 08:59:51;;;;;;;1.58;0.73;;;;;;;30.35;35.63;101042.63;5042031;28;20056;-68
2021/06/16 09:02:20;;;;;;;2.80;1.00;;;;;;;30.36;34.18;101052.56;5015242;28;20053;-68
2021/06/16 09:04:52;;;;;;;2.38;0.68;;;;;;;30.37;33.09;101055.19;5028173;28;20050;-68
2021/06/16 09:07:22;;;;;;;0.90;0.60;;;;;;;30.36;32.64;101047.97;5021082;28;20117;-68
2021/06/16 09:10:04;;;;;;;2.05;0.60;;;;;;;30.43;32.50;101053.94;5031471;28;20037;-68
2021/06/16 09:12:34;;;;;;;3.00;0.82;;;;;;;30.37;32.02;101052.47;5052137;28;20037;-68
2021/06/16 09:15:02;;;;;;;0.82;0.63;;;;;;;30.26;31.74;101048.66;5042327;28;20041;-68
2021/06/16 09:17:29;;;;;;;1.40;0.70;;;;;;;30.38;31.70;101056.06;5046776;28;20048;-68
2021/06/16 09:20:00;;;;;;;0.88;0.60;;;;;;;30.58;31.37;101054.84;5048795;28;20069;-68
2021/06/16 09:22:32;;;;;;;1.83;0.77;;;;;;;30.70;31.11;101059.53;5048676;28;20110;-68
2021/06/16 09:25:03;;;;;;;2.53;0.70;;;;;;;30.59;30.91;101057.47;5027469;28;20119;-68
2021/06/16 09:27:48;;;;;;;3.45;0.73;;;;;;;30.75;30.88;101062.84;5030881;28;20128;-68
2021/06/16 09:30:41;;;;;;;3.47;0.68;;;;;;;30.85;29.90;101069.47;5047171;28;20046;-69
2021/06/16 09:33:14;;;;;;;3.40;1.42;;;;;;;30.61;30.55;101065.56;5023388;28;20044;-68
2021/06/16 09:35:48;;;;;;;1.63;0.60;;;;;;;30.66;30.46;101077.03;5032289;28;20049;-68
2021/06/16 09:38:24;;;;;;;1.33;0.63;;;;;;;30.72;30.07;101074.78;5044684;28;20078;-68
2021/06/16 09:40:57;;;;;;;2.80;1.05;;;;;;;30.66;29.90;101066.13;5051868;28;20041;-68
2021/06/16 09:43:27;;;;;;;1.95;0.93;;;;;;;30.54;29.62;101080.53;5040011;28;20494;-67
2021/06/16 09:45:57;;;;;;;2.40;0.55;;;;;;;30.47;29.71;101069.09;5039042;28;20549;-68
2021/06/16 09:48:30;;;;;;;1.10;0.60;;;;;;;30.33;29.14;101071.81;5046270;28;20517;-68
2021/06/16 09:51:20;;;;;;;2.27;0.67;;;;;;;30.24;28.98;101075.13;5035185;28;20116;-68
2021/06/16 09:54:11;;;;;;;2.55;0.77;;;;;;;30.04;29.39;101073.59;5022180;28;20282;-67
2021/06/16 09:56:41;;;;;;;2.15;0.60;;;;;;;30.05;29.77;101069.91;5017244;28;20057;-67
2021/06/16 09:59:10;;;;;;;3.13;0.65;;;;;;;30.12;29.71;101082.19;5031711;28;20042;-66
2021/06/16 10:01:49;;;;;;;2.45;0.80;;;;;;;29.94;29.63;101070.53;5031160;28;20378;-66
2021/06/16 10:04:34;;;;;;;1.67;0.65;;;;;;;29.80;30.40;101075.88;5019619;28;20052;-67
2021/06/16 10:07:20;;;;;;;2.65;0.60;;;;;;;29.85;30.38;101078.38;5022860;28;20025;-67
2021/06/16 10:09:57;;;;;;;1.48;0.60;;;;;;;30.03;30.45;101080.91;5020796;28;20049;-66
2021/06/16 10:12:28;;;;;;;2.85;0.77;;;;;;;30.03;30.41;101085.47;5034712;28;20049;-67
2021/06/16 10:14:56;;;;;;;1.15;0.63;;;;;;;29.90;30.60;101093.44;5029627;28;20159;-67
2021/06/16 10:17:24;;;;;;;1.60;0.60;;;;;;;30.02;30.52;101089.16;5030550;28;20161;-67
2021/06/16 10:19:53;;;;;;;2.92;0.80;;;;;;;29.95;29.53;101076.88;5020936;28;20386;-68
2021/06/16 10:22:23;;;;;;;2.60;0.70;;;;;;;29.95;29.60;101076.88;5020593;28;20038;-68
2021/06/16 10:24:51;;;;;;;2.90;0.70;;;;;;;29.89;30.12;101088.09;5019515;28;20049;-67
2021/06/16 10:27:26;;;;;;;1.15;0.60;;;;;;;29.83;29.79;101083.91;5020410;28;20472;-67
2021/06/16 10:30:00;;;;;;;3.15;0.75;;;;;;;29.73;29.59;101094.44;5026253;28;20065;-68
2021/06/16 10:32:36;;;;;;;1.35;0.75;;;;;;;29.79;30.05;101086.91;5028016;28;20555;-68
2021/06/16 10:35:07;;;;;;;1.85;0.50;;;;;;;29.88;30.21;101091.78;5050127;28;20231;-67
2021/06/16 10:37:37;;;;;;;1.63;0.90;;;;;;;29.98;30.14;101096.63;5039082;28;20037;-68
2021/06/16 10:40:34;;;;;;;0.90;0.43;;;;;;;30.03;29.58;101091.78;5032319;28;20092;-68
2021/06/16 10:43:23;;;;;;;3.28;0.77;;;;;;;30.08;29.73;101094.22;5039496;28;20056;-67
2021/06/16 10:45:57;;;;;;;1.27;0.70;;;;;;;30.10;29.39;101108.63;5031183;28;20049;-67
2021/06/16 10:48:39;;;;;;;;;;;;;;;30.20;29.49;101104.38;5028948;28;20462;-67
2021/06/16 10:51:07;;;;;;;1.75;0.85;;;;;;;30.28;29.18;101098.47;5018504;28;19921;-68
2021/06/16 10:53:35;;;;;;;2.10;0.73;;;;;;;30.42;28.95;101103.94;5027578;28;20041;-67
2021/06/16 10:56:08;;;;;;;4.13;0.80;;;;;;;30.49;28.61;101102.63;5040831;28;20064;-68
2021/06/16 10:58:45;;;;;;;14.85;2.42;;;;;;;30.56;28.15;101108.59;5034073;28;20045;-68
2021/06/16 11:01:14;;;;;;;1.30;0.70;;;;;;;30.64;28.36;101115.31;5043609;28;20410;-68
2021/06/16 11:04:03;;;;;;;1.20;0.68;;;;;;;30.75;28.53;101095.56;5032400;28;20029;-68
2021/06/16 11:06:41;;;;;;;4.85;1.05;;;;;;;30.93;28.56;101096.22;5029242;28;20109;-68
2021/06/16 11:09:11;;;;;;;2.08;0.60;;;;;;;31.13;28.20;101104.94;5030571;28;20044;-68
2021/06/16 11:12:09;;;;;;;2.20;0.70;;;;;;;31.31;27.63;101100.09;5030594;28;20037;-68
2021/06/16 11:14:49;;;;;;;1.58;0.70;;;;;;;31.44;27.08;101105.69;5049065;28;20373;-67
2021/06/16 11:17:42;;;;;;;1.38;0.70;;;;;;;31.58;26.58;101108.34;5049896;28;20052;-68
2021/06/16 11:20:12;;;;;;;2.15;0.60;;;;;;;31.73;26.94;101098.28;5049412;28;20045;-68
2021/06/16 11:22:53;;;;;;;1.13;0.60;;;;;;;31.73;27.07;101106.47;5049714;28;20512;-68
2021/06/16 11:25:40;;;;;;;1.60;0.70;;;;;;;31.97;27.30;101102.06;5043130;28;20102;-67
2021/06/16 11:28:17;;;;;;;1.20;0.60;;;;;;;32.12;27.18;101100.16;5050059;28;20504;-68
2021/06/16 11:30:50;;;;;;;1.38;0.52;;;;;;;32.31;26.91;101106.13;5053631;28;20116;-67
2021/06/16 11:33:35;;;;;;;1.65;0.68;;;;;;;32.45;26.66;101106.06;5049290;28;20128;-68
2021/06/16 11:36:11;;;;;;;2.95;0.73;;;;;;;32.40;26.10;101108.25;5049734;28;20063;-68
2021/06/16 11:38:41;;;;;;;1.95;0.63;;;;;;;32.65;25.70;101102.78;5049870;28;20445;-68
2021/06/16 11:41:17;;;;;;;1.88;0.60;;;;;;;32.67;24.71;101111.81;5050127;28;20091;-68